< < Back
Terminal Aerodrome Forecast


Current Version              Previous Versions:   1  2  3  4  5  6  7  8  9  

Terminal Aerodrome Forecast

096
FTUS44 KOHX 242300
TAFCSV
TAF
KCSV 242331Z 2500/2524 VRB03KT P6SM SCT250
     FM251600 21005KT P6SM BKN035=

Latest METAR

100
SAUS70 KWBC 250000 RRF
MTRCSV
METAR KCSV 242353Z AUTO 33003KT 10SM CLR 14/03 A3009 RMK AO2 SLP185
T01390028 10206 20139 53009


USA.gov is the U.S. government's official web portal to all federal, state and local government web resources and services.